createdAt,value
2018-02-05T00:01:34.672Z,32.60
2018-02-05T00:04:01.018Z,27.92
2018-02-05T00:06:28.248Z,30.05
2018-02-05T00:09:08.802Z,31.58
2018-02-05T00:11:35.502Z,30.02
2018-02-05T00:14:01.971Z,30.42
2018-02-05T00:16:28.266Z,28.17
2018-02-05T00:18:55.754Z,32.42
2018-02-05T00:21:23.170Z,34.13
2018-02-05T00:23:49.834Z,32.00
2018-02-05T00:26:17.278Z,32.70
2018-02-05T00:28:45.285Z,32.25
2018-02-05T00:31:11.587Z,31.02
2018-02-05T00:33:41.500Z,31.10
2018-02-05T00:36:07.805Z,36.33
2018-02-05T00:38:34.134Z,28.90
2018-02-05T00:41:00.442Z,30.62
2018-02-05T00:43:27.103Z,29.52
2018-02-05T00:45:53.444Z,28.30
2018-02-05T00:48:19.892Z,28.67
2018-02-05T00:50:46.734Z,31.50
2018-02-05T00:53:13.043Z,32.58
2018-02-05T00:55:40.302Z,26.15
2018-02-05T00:58:06.654Z,33.83
2018-02-05T01:00:32.955Z,30.98
2018-02-05T01:03:00.497Z,30.60
2018-02-05T01:05:26.769Z,28.20
2018-02-05T01:07:53.877Z,36.50
2018-02-05T01:10:21.030Z,32.72
2018-02-05T01:12:47.374Z,33.03
2018-02-05T01:15:13.815Z,31.35
2018-02-05T01:17:40.345Z,33.55
2018-02-05T01:20:06.781Z,30.67
2018-02-05T01:22:33.110Z,33.78
2018-02-05T01:24:59.435Z,32.35
2018-02-05T01:27:25.778Z,28.80
2018-02-05T01:29:52.175Z,29.92
2018-02-05T01:32:18.474Z,31.27
2018-02-05T01:34:44.984Z,30.10
2018-02-05T01:37:13.416Z,32.45
2018-02-05T01:39:39.725Z,27.40
2018-02-05T01:42:06.811Z,27.62
2018-02-05T01:44:33.155Z,29.10
2018-02-05T01:46:59.596Z,33.63
2018-02-05T01:49:25.911Z,28.38
2018-02-05T01:51:52.412Z,28.10
2018-02-05T01:54:19.338Z,28.30
2018-02-05T01:56:45.686Z,24.77
2018-02-05T01:59:11.798Z,26.42
2018-02-05T02:01:37.898Z,28.17
2018-02-05T02:04:05.023Z,27.85
2018-02-05T02:06:31.137Z,25.60
2018-02-05T02:08:57.291Z,31.37
2018-02-05T02:11:23.601Z,30.73
2018-02-05T02:13:51.109Z,29.42
2018-02-05T02:16:17.245Z,27.67
2018-02-05T02:18:43.344Z,28.58
2018-02-05T02:21:12.577Z,31.05
2018-02-05T02:23:38.870Z,30.70
2018-02-05T02:26:05.262Z,30.17
2018-02-05T02:28:31.589Z,31.42
2018-02-05T02:30:58.790Z,32.65
2018-02-05T02:33:24.927Z,26.90
2018-02-05T02:35:51.299Z,26.40
2018-02-05T02:38:18.211Z,28.12
2018-02-05T02:40:44.491Z,33.10
2018-02-05T02:43:11.264Z,32.83
2018-02-05T02:45:38.336Z,31.83
2018-02-05T02:48:04.703Z,32.30
2018-02-05T02:50:30.999Z,29.70
2018-02-05T02:52:57.416Z,28.92
2018-02-05T02:55:23.714Z,27.50
2018-02-05T02:57:49.828Z,29.15
2018-02-05T03:00:16.942Z,26.75
2018-02-05T03:02:43.226Z,29.48
2018-02-05T03:05:09.597Z,27.48
2018-02-05T03:07:35.937Z,31.12
2018-02-05T03:10:02.984Z,30.25
2018-02-05T03:12:29.253Z,33.38
2018-02-05T03:14:55.383Z,32.75
2018-02-05T03:17:21.502Z,30.10
2018-02-05T03:19:47.863Z,31.87
2018-02-05T03:22:14.236Z,26.65
2018-02-05T03:24:40.739Z,31.02
2018-02-05T03:27:07.846Z,27.10
2018-02-05T03:29:36.349Z,29.37
2018-02-05T03:32:03.358Z,31.42
2018-02-05T03:34:30.216Z,28.27
2018-02-05T03:36:56.435Z,31.02
2018-02-05T03:39:23.316Z,31.15
2018-02-05T03:41:49.668Z,30.23
2018-02-05T03:44:15.770Z,28.67
2018-02-05T03:46:41.986Z,30.85
2018-02-05T03:49:08.404Z,35.13
2018-02-05T03:51:34.523Z,31.33
2018-02-05T03:54:00.912Z,29.02
2018-02-05T03:56:27.027Z,32.08
2018-02-05T03:58:53.349Z,32.20
2018-02-05T04:01:19.671Z,31.83
2018-02-05T04:03:46.786Z,28.60
2018-02-05T04:06:13.193Z,31.25
2018-02-05T04:08:39.521Z,28.83
2018-02-05T04:11:06.857Z,31.02
2018-02-05T04:13:32.982Z,30.33
2018-02-05T04:15:59.101Z,33.28
2018-02-05T04:18:25.488Z,30.40
2018-02-05T04:20:51.854Z,33.10
2018-02-05T04:23:18.157Z,30.27
2018-02-05T04:25:44.601Z,29.90
2018-02-05T04:28:10.887Z,33.25
2018-02-05T04:30:37.197Z,29.70
2018-02-05T04:33:03.643Z,26.87
2018-02-05T04:35:30.711Z,31.30
2018-02-05T04:37:56.903Z,32.17
2018-02-05T04:40:23.300Z,31.17
2018-02-05T04:42:49.538Z,31.75
2018-02-05T04:45:15.615Z,34.65
2018-02-05T04:47:41.733Z,28.50
2018-02-05T04:50:08.053Z,30.77
2018-02-05T04:52:35.092Z,32.47
2018-02-05T04:55:01.199Z,36.40
2018-02-05T04:57:27.320Z,29.77
2018-02-05T04:59:53.603Z,30.98
2018-02-05T05:02:19.922Z,36.67
2018-02-05T05:04:46.234Z,28.27
2018-02-05T05:07:13.450Z,30.98
2018-02-05T05:09:39.575Z,35.80
2018-02-05T05:12:06.051Z,31.75
2018-02-05T05:14:32.409Z,32.72
2018-02-05T05:16:58.585Z,31.48
2018-02-05T05:19:24.961Z,31.92
2018-02-05T05:21:51.290Z,32.97
2018-02-05T05:24:17.600Z,36.75
2018-02-05T05:26:43.914Z,27.55
2018-02-05T05:29:10.242Z,30.67
2018-02-05T05:31:37.551Z,26.23
2018-02-05T05:34:03.927Z,29.10
2018-02-05T05:36:30.214Z,29.85
2018-02-05T05:38:57.163Z,31.45
2018-02-05T05:41:23.590Z,25.37
2018-02-05T05:43:49.918Z,31.08
2018-02-05T05:46:16.734Z,33.92
2018-02-05T05:48:44.099Z,34.13
2018-02-05T05:51:11.808Z,28.25
2018-02-05T05:53:37.955Z,32.15
2018-02-05T05:56:04.059Z,34.63
2018-02-05T05:58:30.588Z,31.35
2018-02-05T06:00:57.581Z,31.80
2018-02-05T06:03:24.120Z,34.05
2018-02-05T06:05:51.307Z,34.67
2018-02-05T06:08:17.687Z,33.15
2018-02-05T06:10:43.807Z,33.63
2018-02-05T06:13:18.578Z,29.60
2018-02-05T06:15:50.907Z,29.98
2018-02-05T06:18:17.063Z,34.75
2018-02-05T06:20:43.291Z,24.67
2018-02-05T06:23:09.497Z,33.05
2018-02-05T06:25:35.679Z,28.52
2018-02-05T06:28:01.771Z,31.27
2018-02-05T06:30:28.023Z,20.90
2018-02-05T06:33:03.309Z,28.60
2018-02-05T06:35:46.131Z,22.00
2018-02-05T06:38:12.495Z,27.13
2018-02-05T06:40:48.690Z,23.95
2018-02-05T06:43:18.436Z,26.65
2018-02-05T06:45:48.445Z,22.30
2018-02-05T06:48:15.359Z,24.75
2018-02-05T06:50:53.878Z,23.05
2018-02-05T06:53:44.869Z,27.05
2018-02-05T06:56:22.626Z,22.85
2018-02-05T07:01:45.367Z,20.65
2018-02-05T07:04:12.391Z,25.00
2018-02-05T07:06:38.713Z,22.62
2018-02-05T07:09:10.212Z,22.80
2018-02-05T07:11:36.502Z,20.15
2018-02-05T07:14:02.878Z,21.33
2018-02-05T07:16:29.189Z,20.65
2018-02-05T07:18:55.546Z,20.98
2018-02-05T07:21:21.874Z,22.00
2018-02-05T07:23:48.206Z,21.77
2018-02-05T07:26:15.292Z,20.62
2018-02-05T07:28:41.599Z,18.80
2018-02-05T07:31:07.908Z,21.98
2018-02-05T07:33:34.506Z,22.85
2018-02-05T07:36:03.798Z,21.35
2018-02-05T07:38:30.740Z,17.30
2018-02-05T07:40:57.318Z,19.58
2018-02-05T07:43:23.629Z,21.73
2018-02-05T07:45:50.928Z,20.27
2018-02-05T07:48:25.952Z,19.10
2018-02-05T07:50:55.430Z,18.33
2018-02-05T07:53:22.388Z,22.37
2018-02-05T07:55:50.090Z,20.92
2018-02-05T07:58:19.608Z,18.62
2018-02-05T08:00:46.002Z,18.73
2018-02-05T08:03:19.938Z,16.83
2018-02-05T08:05:49.653Z,19.45
2018-02-05T08:08:19.138Z,18.05
2018-02-05T08:10:45.254Z,18.05
2018-02-05T08:13:11.411Z,18.67
2018-02-05T08:28:27.279Z,16.98
2018-02-05T08:30:54.533Z,16.17
2018-02-05T08:33:20.681Z,15.75
2018-02-05T08:35:46.878Z,19.10
2018-02-05T08:38:13.810Z,15.98
2018-02-05T08:40:50.078Z,15.90
2018-02-05T08:43:16.201Z,18.23
2018-02-05T08:45:48.771Z,17.40
2018-02-05T08:48:14.882Z,17.35
2018-02-05T08:50:40.991Z,14.80
2018-02-05T08:53:07.158Z,16.05
2018-02-05T08:55:33.368Z,15.15
2018-02-05T08:57:59.546Z,14.63
2018-02-05T09:00:26.433Z,14.40
2018-02-05T09:02:53.474Z,14.20
2018-02-05T09:05:20.348Z,12.18
2018-02-05T09:13:50.871Z,16.73
2018-02-05T09:16:17.235Z,13.88
2018-02-05T09:18:43.542Z,14.32
2018-02-05T09:21:09.859Z,13.65
2018-02-05T09:23:39.563Z,11.73
2018-02-05T09:26:05.929Z,16.95
2018-02-05T09:28:32.239Z,14.75
2018-02-05T09:31:18.917Z,14.45
2018-02-05T09:33:45.435Z,13.65
2018-02-05T09:36:11.807Z,18.73
2018-02-05T09:38:38.136Z,16.58
2018-02-05T09:41:04.493Z,15.98
2018-02-05T09:43:31.578Z,14.68
2018-02-05T09:45:57.926Z,16.23
2018-02-05T09:48:48.818Z,15.15
2018-02-05T09:51:15.694Z,15.48
2018-02-05T09:53:41.878Z,13.45
2018-02-05T09:56:10.971Z,15.07
2018-02-05T09:58:37.210Z,11.70
2018-02-05T10:01:03.687Z,14.13
2018-02-05T10:03:30.014Z,13.80
2018-02-05T10:05:56.353Z,14.35
2018-02-05T10:08:22.603Z,13.93
2018-02-05T10:10:48.926Z,13.98
2018-02-05T10:15:46.647Z,13.77
2018-02-05T10:18:13.038Z,12.65
2018-02-05T10:20:39.310Z,13.62
2018-02-05T10:23:05.506Z,14.30
2018-02-05T10:25:32.562Z,12.07
2018-02-05T10:27:58.911Z,14.38
2018-02-05T10:30:25.252Z,12.23
2018-02-05T10:32:56.662Z,13.13
2018-02-05T10:35:23.891Z,12.43
2018-02-05T10:37:50.179Z,11.60
2018-02-05T10:40:16.555Z,10.23
2018-02-05T10:42:42.924Z,10.23
2018-02-05T10:45:09.202Z,12.85
2018-02-05T10:47:37.831Z,11.40
2018-02-05T10:50:04.020Z,10.73
2018-02-05T10:52:30.966Z,10.30
2018-02-05T10:54:57.909Z,11.48
2018-02-05T10:57:24.128Z,12.75
2018-02-05T10:59:50.366Z,10.45
2018-02-05T11:02:21.870Z,10.20
2018-02-05T11:04:48.150Z,9.63
2018-02-05T11:07:14.471Z,11.43
2018-02-05T11:09:40.871Z,9.85
2018-02-05T11:12:07.195Z,11.15
2018-02-05T11:14:33.383Z,9.60
2018-02-05T11:17:00.434Z,9.57
2018-02-05T11:19:26.821Z,10.43
2018-02-05T11:21:59.033Z,10.88
2018-02-05T11:24:25.274Z,8.73
2018-02-05T11:26:52.246Z,11.00
2018-02-05T11:29:18.427Z,11.38
2018-02-05T11:31:44.607Z,14.07
2018-02-05T11:34:10.751Z,11.57
2018-02-05T11:36:37.838Z,13.18
2018-02-05T11:39:11.166Z,12.13
2018-02-05T11:41:37.371Z,10.85
2018-02-05T11:44:03.599Z,13.62
2018-02-05T11:46:30.490Z,14.05
2018-02-05T11:48:59.479Z,11.93
2018-02-05T11:51:25.658Z,14.57
2018-02-05T11:53:56.042Z,14.50
2018-02-05T11:56:22.368Z,13.00
2018-02-05T11:58:48.936Z,15.48
2018-02-05T12:01:15.244Z,16.25
2018-02-05T12:03:41.515Z,16.20
2018-02-05T12:06:07.866Z,15.00
2018-02-05T12:08:34.168Z,15.35
2018-02-05T12:11:00.466Z,16.90
2018-02-05T12:13:31.483Z,13.05
2018-02-05T12:15:57.634Z,13.02
2018-02-05T12:18:23.874Z,16.23
2018-02-05T12:20:50.109Z,13.68
2018-02-05T12:23:16.401Z,14.32
2018-02-05T12:25:42.651Z,14.00
2018-02-05T12:28:08.960Z,13.55
2018-02-05T12:30:39.881Z,14.68
2018-02-05T12:33:06.141Z,12.80
2018-02-05T12:35:33.442Z,14.73
2018-02-05T12:37:59.815Z,13.88
2018-02-05T12:40:26.116Z,15.70
2018-02-05T12:42:53.124Z,15.20
2018-02-05T12:45:19.289Z,13.82
2018-02-05T12:47:59.219Z,13.30
2018-02-05T12:50:27.603Z,17.70
2018-02-05T12:55:47.908Z,16.10
2018-02-05T12:58:14.326Z,14.48
2018-02-05T13:00:50.290Z,13.70
2018-02-05T13:03:22.650Z,17.92
2018-02-05T13:05:50.613Z,17.70
2018-02-05T13:08:17.097Z,12.27
2018-02-05T13:10:43.512Z,13.18
2018-02-05T13:13:09.796Z,14.07
2018-02-05T13:15:40.670Z,12.50
2018-02-05T13:18:07.927Z,15.27
2018-02-05T13:20:34.375Z,15.45
2018-02-05T13:23:00.902Z,15.60
2018-02-05T13:25:27.245Z,14.90
2018-02-05T13:27:53.884Z,15.48
2018-02-05T13:30:20.340Z,16.77
2018-02-05T13:32:46.683Z,17.35
2018-02-05T13:35:14.701Z,13.30
2018-02-05T13:37:41.148Z,13.82
2018-02-05T13:40:07.607Z,12.50
2018-02-05T13:42:33.914Z,11.60
2018-02-05T13:45:01.206Z,14.93
2018-02-05T13:47:27.546Z,12.55
2018-02-05T13:49:53.901Z,13.68
2018-02-05T13:52:20.251Z,14.23
2018-02-05T13:54:50.522Z,13.85
2018-02-05T13:57:17.001Z,13.68
2018-02-05T13:59:43.443Z,10.90
2018-02-05T14:02:09.766Z,12.05
2018-02-05T14:04:36.154Z,13.80
2018-02-05T14:07:02.517Z,13.65
2018-02-05T14:09:28.875Z,12.13
2018-02-05T14:11:59.566Z,12.05
2018-02-05T14:14:25.918Z,13.00
2018-02-05T14:16:52.280Z,13.77
2018-02-05T14:19:19.400Z,15.07
2018-02-05T14:21:45.748Z,13.05
2018-02-05T14:24:12.078Z,15.13
2018-02-05T14:26:38.416Z,12.75
2018-02-05T14:29:10.357Z,12.43
2018-02-05T14:31:36.706Z,12.30
2018-02-05T14:34:03.122Z,15.25
2018-02-05T14:36:29.614Z,12.60
2018-02-05T14:38:56.213Z,12.63
2018-02-05T14:41:22.624Z,13.35
2018-02-05T14:43:49.035Z,15.70
2018-02-05T14:46:15.506Z,12.73
2018-02-05T14:48:44.205Z,13.00
2018-02-05T14:51:10.622Z,15.85
2018-02-05T14:53:36.942Z,14.23
2018-02-05T14:56:03.425Z,14.65
2018-02-05T14:58:29.879Z,15.32
2018-02-05T15:00:56.959Z,16.27
2018-02-05T15:03:24.010Z,18.15
2018-02-05T15:05:50.341Z,15.00
2018-02-05T15:08:19.903Z,12.95
2018-02-05T15:10:46.231Z,15.60
2018-02-05T15:13:13.332Z,15.43
2018-02-05T15:15:39.821Z,18.23
2018-02-05T15:18:06.256Z,15.98
2018-02-05T15:20:32.653Z,16.20
2018-02-05T15:22:58.971Z,15.40
2018-02-05T15:25:25.406Z,14.48
2018-02-05T15:27:53.388Z,18.50
2018-02-05T15:30:20.797Z,17.90
2018-02-05T15:32:47.118Z,14.52
2018-02-05T15:35:13.529Z,12.82
2018-02-05T15:37:40.070Z,17.35
2018-02-05T15:40:06.426Z,16.80
2018-02-05T15:42:32.726Z,14.70
2018-02-05T15:44:58.916Z,17.98
2018-02-05T15:47:25.057Z,18.45
2018-02-05T15:49:53.057Z,14.15
2018-02-05T15:52:19.399Z,17.23
2018-02-05T15:54:46.286Z,17.05
2018-02-05T15:57:12.425Z,14.57
2018-02-05T15:59:38.581Z,17.42
2018-02-05T16:02:04.760Z,13.65
2018-02-05T16:04:30.960Z,14.00
2018-02-05T16:06:57.161Z,17.08
2018-02-05T16:09:40.193Z,16.52
2018-02-05T16:12:06.674Z,14.50
2018-02-05T16:14:33.843Z,18.33
2018-02-05T16:17:00.145Z,13.95
2018-02-05T16:19:26.539Z,14.82
2018-02-05T16:21:54.747Z,16.15
2018-02-05T16:24:21.026Z,14.15
2018-02-05T16:26:47.395Z,14.93
2018-02-05T16:29:13.738Z,16.02
2018-02-05T16:31:40.041Z,14.73
2018-02-05T16:34:06.537Z,18.08
2018-02-05T16:36:32.903Z,14.65
2018-02-05T16:38:59.906Z,16.75
2018-02-05T16:41:26.367Z,15.32
2018-02-05T16:43:55.714Z,19.55
2018-02-05T16:46:22.114Z,15.55
2018-02-05T16:48:48.450Z,14.18
2018-02-05T16:51:15.509Z,14.02
2018-02-05T16:53:41.799Z,16.65
2018-02-05T16:56:08.159Z,16.05
2018-02-05T16:58:34.536Z,13.55
2018-02-05T17:01:02.867Z,15.10
2018-02-05T17:03:29.147Z,15.35
2018-02-05T17:05:55.578Z,18.95
2018-02-05T17:08:21.939Z,16.10
2018-02-05T17:10:48.414Z,18.42
2018-02-05T17:13:15.549Z,17.70
2018-02-05T17:15:43.795Z,17.35
2018-02-05T17:18:10.400Z,16.30
2018-02-05T17:20:36.753Z,15.70
2018-02-05T17:23:03.067Z,14.32
2018-02-05T17:25:29.473Z,16.62
2018-02-05T17:27:55.809Z,18.83
2018-02-05T17:30:22.186Z,17.02
2018-02-05T17:32:53.837Z,17.02
2018-02-05T17:35:20.190Z,16.60
2018-02-05T17:37:46.530Z,20.98
2018-02-05T17:40:12.849Z,16.98
2018-02-05T17:42:39.175Z,17.90
2018-02-05T17:45:05.580Z,16.77
2018-02-05T17:47:31.886Z,20.00
2018-02-05T17:52:29.714Z,16.70
2018-02-05T17:54:57.120Z,18.58
2018-02-05T17:57:23.436Z,19.05
2018-02-05T17:59:50.522Z,20.35
2018-02-05T18:02:17.572Z,16.58
2018-02-05T18:04:44.031Z,17.70
2018-02-05T18:07:11.244Z,17.60
2018-02-05T18:09:39.083Z,19.35
2018-02-05T18:12:05.370Z,18.52
2018-02-05T18:14:31.648Z,16.55
2018-02-05T18:16:58.959Z,19.83
2018-02-05T18:19:25.308Z,17.85
2018-02-05T18:21:51.610Z,16.80
2018-02-05T18:24:18.662Z,16.40
2018-02-05T18:26:45.726Z,19.12
2018-02-05T18:29:13.226Z,18.30
2018-02-05T18:31:40.631Z,18.35
2018-02-05T18:34:06.952Z,17.08
2018-02-05T18:36:33.320Z,18.33
2018-02-05T18:38:59.834Z,17.58
2018-02-05T18:41:26.155Z,19.85
2018-02-05T18:43:52.678Z,15.00
2018-02-05T18:46:21.766Z,17.25
2018-02-05T18:48:48.076Z,15.40
2018-02-05T18:51:17.882Z,15.80
2018-02-05T18:53:44.198Z,13.65
2018-02-05T18:56:10.562Z,15.80
2018-02-05T18:58:36.803Z,13.25
2018-02-05T19:01:03.174Z,19.33
2018-02-05T19:03:40.963Z,16.52
2018-02-05T19:06:07.292Z,18.52
2018-02-05T19:08:34.370Z,16.30
2018-02-05T19:11:02.218Z,16.52
2018-02-05T19:13:29.599Z,16.15
2018-02-05T19:15:57.015Z,18.45
2018-02-05T19:18:23.354Z,21.83
2018-02-05T19:21:02.286Z,18.05
2018-02-05T19:23:29.686Z,16.95
2018-02-05T19:25:56.023Z,18.55
2018-02-05T19:28:23.384Z,17.92
2018-02-05T19:30:49.649Z,19.27
2018-02-05T19:33:17.815Z,19.02
2018-02-05T19:35:44.122Z,21.62
2018-02-05T19:38:12.300Z,19.23
2018-02-05T19:40:38.629Z,21.40
2018-02-05T19:45:57.222Z,19.90
2018-02-05T19:48:24.255Z,17.17
2018-02-05T19:50:50.721Z,15.57
2018-02-05T19:53:24.956Z,17.08
2018-02-05T19:58:27.183Z,16.33
2018-02-05T20:03:44.183Z,16.73
2018-02-05T20:06:10.288Z,20.77
2018-02-05T20:11:36.506Z,22.30
2018-02-05T20:14:02.684Z,18.85
2018-02-05T20:16:28.933Z,20.55
2018-02-05T20:18:55.124Z,20.10
2018-02-05T20:21:23.853Z,18.87
2018-02-05T20:23:50.778Z,20.98
2018-02-05T20:26:16.917Z,18.20
2018-02-05T20:28:43.045Z,16.67
2018-02-05T20:31:11.148Z,17.55
2018-02-05T20:33:39.746Z,18.77
2018-02-05T20:36:05.858Z,17.90
2018-02-05T20:38:32.011Z,14.10
2018-02-05T20:40:58.159Z,17.02
2018-02-05T20:43:28.599Z,15.68
2018-02-05T20:45:58.959Z,20.45
2018-02-05T20:48:28.540Z,20.90
2018-02-05T20:50:58.881Z,15.10
2018-02-05T20:53:39.123Z,21.12
2018-02-05T20:56:05.430Z,16.40
2018-02-05T20:58:32.496Z,20.02
2018-02-05T21:00:59.588Z,21.52
